»·PEaware :: DAL123 KGJT-KASE

DAL123 :: KGJT-KASE

FLIGHT INFORMATION

Flight Status: Arrived
Operator:
Delta Air Lines
More flights by this operator :: More flights under this callsign
Pilot: Sergei F. (8485)
Aircraft: BOEING 737-300
(B733)
More flights by this aircraft type
Origin: KGJT Walker
United States
Destination: KASE Aspen-Pitkin Co/Sardy
United States
More flights between these airports :: More routes between these airports
Route: MONMT2 JNC V134 DBL
File this flight plan on PilotEdge
Remarks:
Altitude:
(Current/Filed)
17,000ft
Speed:
(Current/Filed)
250kts
Departed: 07-Jan-18 09:00 PM
Arrived: 07-Jan-18 09:32 PM
Distance/Time
Traveled:
78nm/0:31
Distance/Time
To Go:
Arrived

Flight Plot

Page will automatically refresh every two minutes.

Flight plan parsing failed; only flown route is shown


Map Options




Map Legend


Flown Route
Filed Route
Departure Airport
Arrival Airport
Navaid (VOR, NDB)
Fix

Horizontal Profiles

Position Reports

Time Latitude Longitude Heading Altitude Ground
Speed
07-Jan-18 20:34 39.122963 -108.528309 260 4835ft 0kts
07-Jan-18 20:35 39.122963 -108.528309 260 4835ft 0kts
07-Jan-18 20:36 39.122963 -108.528309 260 4835ft 0kts
07-Jan-18 20:37 39.122963 -108.528309 260 4835ft 0kts
07-Jan-18 20:38 39.122963 -108.528309 260 4835ft 0kts
07-Jan-18 20:39 39.122963 -108.528309 260 4835ft 0kts
07-Jan-18 20:40 39.122963 -108.528309 260 4835ft 0kts
07-Jan-18 20:41 39.122963 -108.528309 260 4835ft 0kts
07-Jan-18 20:42 39.122963 -108.528309 260 4835ft 0kts
07-Jan-18 20:43 39.122963 -108.528309 260 4835ft 0kts
07-Jan-18 20:44 39.122963 -108.528309 260 4835ft 0kts
07-Jan-18 20:45 39.122963 -108.528309 260 4835ft 0kts
07-Jan-18 20:46 39.122963 -108.528309 260 4835ft 0kts
07-Jan-18 20:47 39.122963 -108.528309 260 4835ft 0kts
07-Jan-18 20:48 39.123030 -108.528004 216 4837ft 0kts
07-Jan-18 20:49 39.123461 -108.527582 216 4840ft 0kts
07-Jan-18 20:50 39.123465 -108.527576 125 4840ft 0kts
07-Jan-18 20:51 39.123465 -108.527576 125 4840ft 0kts
07-Jan-18 20:52 39.123465 -108.527576 125 4840ft 0kts
07-Jan-18 20:53 39.123465 -108.527576 125 4840ft 0kts
07-Jan-18 20:54 39.123465 -108.527576 125 4840ft 0kts
07-Jan-18 20:55 39.123465 -108.527576 125 4840ft 0kts
07-Jan-18 20:56 39.123465 -108.527576 125 4840ft 0kts
07-Jan-18 20:57 39.123450 -108.527553 124 4840ft 0kts
07-Jan-18 20:58 39.122933 -108.526074 56 4843ft 3kts
07-Jan-18 20:59 39.122961 -108.526026 52 4843ft 0kts
07-Jan-18 21:00 39.123202 -108.525376 111 4847ft 7kts
07-Jan-18 21:01 39.121704 -108.522619 124 4848ft 13kts
07-Jan-18 21:02 39.119170 -108.518007 125 4849ft 15kts
07-Jan-18 21:03 39.118323 -108.516476 125 4850ft 0kts
07-Jan-18 21:04 39.118361 -108.514666 49 4853ft 7kts
07-Jan-18 21:05 39.119252 -108.515724 304 4853ft 40kts
07-Jan-18 21:06 39.141389 -108.558702 301 6766ft 177kts
07-Jan-18 21:07 39.143362 -108.620701 249 9450ft 194kts
07-Jan-18 21:08 39.122882 -108.688004 249 12109ft 215kts
07-Jan-18 21:09 39.100407 -108.762472 249 14682ft 234kts
07-Jan-18 21:10 39.074949 -108.844635 250 16860ft 271kts
07-Jan-18 21:11 39.048818 -108.927363 250 17000ft 233kts
07-Jan-18 21:12 39.023997 -109.004477 250 16999ft 234kts
07-Jan-18 21:13 38.969324 -109.008643 111 16990ft 277kts
07-Jan-18 21:14 38.998045 -108.912969 52 16980ft 320kts
07-Jan-18 21:15 39.051233 -108.809374 54 16985ft 360kts
07-Jan-18 21:16 39.082138 -108.686675 73 16995ft 362kts
07-Jan-18 21:17 39.107867 -108.562060 73 16993ft 362kts
07-Jan-18 21:18 39.133143 -108.439952 73 16992ft 360kts
07-Jan-18 21:19 39.157798 -108.319594 73 16973ft 361kts
07-Jan-18 21:20 39.183098 -108.194805 73 16994ft 360kts
07-Jan-18 21:21 39.208397 -108.070091 73 17004ft 360kts
07-Jan-18 21:22 39.233588 -107.945273 73 17015ft 361kts
07-Jan-18 21:23 39.258554 -107.820653 73 17025ft 361kts
07-Jan-18 21:24 39.283476 -107.695537 73 17029ft 361kts
07-Jan-18 21:25 39.308190 -107.570792 73 17028ft 361kts
07-Jan-18 21:26 39.332860 -107.445850 74 16052ft 357kts
07-Jan-18 21:27 39.356797 -107.323245 74 16017ft 340kts
07-Jan-18 21:28 39.390241 -107.225246 39 15805ft 283kts
07-Jan-18 21:29 39.443739 -107.161459 39 14962ft 245kts
07-Jan-18 21:30 39.475561 -107.092336 69 14157ft 212kts
07-Jan-18 21:31 39.476491 -107.023369 129 14076ft 202kts
07-Jan-18 21:32 39.441150 -106.972153 151 14040ft 181kts
07-Jan-18 21:33 39.398724 -106.951251 168 13342ft 160kts
07-Jan-18 21:34 39.357743 -106.932883 160 12005ft 155kts
07-Jan-18 21:35 39.318961 -106.913431 163 10734ft 150kts
07-Jan-18 21:36 39.280034 -106.895755 165 9338ft 148kts
07-Jan-18 21:37 39.242971 -106.878273 162 7993ft 137kts
07-Jan-18 21:38 39.220483 -106.867545 144 7762ft 10kts
07-Jan-18 21:39 39.219926 -106.866103 158 7771ft 3kts
07-Jan-18 21:40 39.218935 -106.865586 139 7778ft 7kts
07-Jan-18 21:41 39.218861 -106.864580 69 7780ft 0kts
07-Jan-18 21:42 39.218861 -106.864580 69 7780ft 0kts
07-Jan-18 21:43 39.218861 -106.864580 69 7780ft 0kts
07-Jan-18 21:44 39.218861 -106.864580 69 7780ft 0kts
07-Jan-18 21:45 39.218861 -106.864580 69 7780ft 0kts
07-Jan-18 21:46 39.218861 -106.864580 69 7780ft 0kts
07-Jan-18 21:47 39.218861 -106.864580 69 7780ft 0kts
07-Jan-18 21:48 39.218861 -106.864580 69 7780ft 0kts

Navigation Log

Ident Type
Flight plan parsing failed, navigation log unavailable